sensor_id;sensor_type;location;lat;lon;timestamp;temperature;humidity
6486;DHT22;3276;48.490;9.222;2022-11-27T00:00:22;0.30;46.10
6486;DHT22;3276;48.490;9.222;2022-11-27T00:02:47;0.30;47.40
6486;DHT22;3276;48.490;9.222;2022-11-27T00:05:13;0.40;46.70
6486;DHT22;3276;48.490;9.222;2022-11-27T00:07:38;0.40;46.70
6486;DHT22;3276;48.490;9.222;2022-11-27T00:10:05;0.30;46.60
6486;DHT22;3276;48.490;9.222;2022-11-27T00:12:30;0.30;48.40
6486;DHT22;3276;48.490;9.222;2022-11-27T00:14:56;0.30;48.30
6486;DHT22;3276;48.490;9.222;2022-11-27T00:17:21;0.40;50.60
6486;DHT22;3276;48.490;9.222;2022-11-27T00:19:47;0.40;50.60
6486;DHT22;3276;48.490;9.222;2022-11-27T00:22:12;0.40;52.10
6486;DHT22;3276;48.490;9.222;2022-11-27T00:24:38;0.40;52.20
6486;DHT22;3276;48.490;9.222;2022-11-27T00:27:03;0.50;52.90
6486;DHT22;3276;48.490;9.222;2022-11-27T00:29:29;0.50;52.80
6486;DHT22;3276;48.490;9.222;2022-11-27T00:31:55;0.50;53.00
6486;DHT22;3276;48.490;9.222;2022-11-27T00:34:22;0.60;52.30
6486;DHT22;3276;48.490;9.222;2022-11-27T00:36:47;0.60;52.80
6486;DHT22;3276;48.490;9.222;2022-11-27T00:39:13;0.50;54.00
6486;DHT22;3276;48.490;9.222;2022-11-27T00:41:38;0.50;54.10
6486;DHT22;3276;48.490;9.222;2022-11-27T00:44:04;0.60;54.20
6486;DHT22;3276;48.490;9.222;2022-11-27T00:46:32;0.60;54.30
6486;DHT22;3276;48.490;9.222;2022-11-27T00:48:58;0.70;53.90
6486;DHT22;3276;48.490;9.222;2022-11-27T00:51:25;0.60;54.30
6486;DHT22;3276;48.490;9.222;2022-11-27T00:53:51;0.70;54.40
6486;DHT22;3276;48.490;9.222;2022-11-27T00:56:27;0.70;54.30
6486;DHT22;3276;48.490;9.222;2022-11-27T00:58:53;0.70;54.40
6486;DHT22;3276;48.490;9.222;2022-11-27T01:01:21;0.70;55.70
6486;DHT22;3276;48.490;9.222;2022-11-27T01:08:40;0.90;46.10
6486;DHT22;3276;48.490;9.222;2022-11-27T01:11:06;0.70;41.60
6486;DHT22;3276;48.490;9.222;2022-11-27T01:13:33;0.70;39.00
6486;DHT22;3276;48.490;9.222;2022-11-27T01:16:05;0.60;39.50
6486;DHT22;3276;48.490;9.222;2022-11-27T01:18:32;0.60;39.50
6486;DHT22;3276;48.490;9.222;2022-11-27T01:20:58;0.60;41.20
6486;DHT22;3276;48.490;9.222;2022-11-27T01:23:24;0.60;40.00
6486;DHT22;3276;48.490;9.222;2022-11-27T01:25:50;0.70;41.20
6486;DHT22;3276;48.490;9.222;2022-11-27T01:28:19;0.70;39.70
6486;DHT22;3276;48.490;9.222;2022-11-27T01:30:44;0.60;39.50
6486;DHT22;3276;48.490;9.222;2022-11-27T01:33:10;0.60;39.50
6486;DHT22;3276;48.490;9.222;2022-11-27T01:35:36;0.50;39.50
6486;DHT22;3276;48.490;9.222;2022-11-27T01:38:01;0.40;39.50
6486;DHT22;3276;48.490;9.222;2022-11-27T01:40:27;0.40;40.00
6486;DHT22;3276;48.490;9.222;2022-11-27T01:42:52;0.40;39.40
6486;DHT22;3276;48.490;9.222;2022-11-27T01:45:20;0.20;39.50
6486;DHT22;3276;48.490;9.222;2022-11-27T01:47:49;0.10;40.90
6486;DHT22;3276;48.490;9.222;2022-11-27T01:50:28;0.20;40.90
6486;DHT22;3276;48.490;9.222;2022-11-27T01:53:00;0.10;41.30
6486;DHT22;3276;48.490;9.222;2022-11-27T01:55:31;0.20;41.80
6486;DHT22;3276;48.490;9.222;2022-11-27T01:58:03;0.10;41.40
6486;DHT22;3276;48.490;9.222;2022-11-27T02:00:29;-0.10;41.00
6486;DHT22;3276;48.490;9.222;2022-11-27T02:02:55;-0.10;41.50
6486;DHT22;3276;48.490;9.222;2022-11-27T02:05:23;-0.10;42.30
6486;DHT22;3276;48.490;9.222;2022-11-27T02:07:51;-0.10;42.50
6486;DHT22;3276;48.490;9.222;2022-11-27T02:10:18;-0.10;42.20
6486;DHT22;3276;48.490;9.222;2022-11-27T02:13:08;-0.20;42.90
6486;DHT22;3276;48.490;9.222;2022-11-27T02:15:46;-0.10;42.30
6486;DHT22;3276;48.490;9.222;2022-11-27T02:21:19;-0.20;42.40
6486;DHT22;3276;48.490;9.222;2022-11-27T02:29:33;-0.20;41.00
6486;DHT22;3276;48.490;9.222;2022-11-27T02:32:14;-0.20;40.70
6486;DHT22;3276;48.490;9.222;2022-11-27T02:35:00;-0.30;40.20
6486;DHT22;3276;48.490;9.222;2022-11-27T02:38:06;-0.30;42.00
6486;DHT22;3276;48.490;9.222;2022-11-27T02:40:56;-0.20;42.70
6486;DHT22;3276;48.490;9.222;2022-11-27T02:43:29;-0.30;41.70
6486;DHT22;3276;48.490;9.222;2022-11-27T02:45:56;-0.30;42.50
6486;DHT22;3276;48.490;9.222;2022-11-27T02:48:29;-0.30;42.30
6486;DHT22;3276;48.490;9.222;2022-11-27T02:50:55;-0.30;42.40
6486;DHT22;3276;48.490;9.222;2022-11-27T02:53:37;-0.30;42.70
6486;DHT22;3276;48.490;9.222;2022-11-27T02:56:06;-0.20;43.00
6486;DHT22;3276;48.490;9.222;2022-11-27T02:58:34;-0.30;41.20
6486;DHT22;3276;48.490;9.222;2022-11-27T03:01:02;-0.30;41.30
6486;DHT22;3276;48.490;9.222;2022-11-27T03:03:33;-0.40;41.60
6486;DHT22;3276;48.490;9.222;2022-11-27T03:06:05;-0.40;42.00
6486;DHT22;3276;48.490;9.222;2022-11-27T03:08:59;-0.40;42.10
6486;DHT22;3276;48.490;9.222;2022-11-27T03:11:27;-0.30;42.30
6486;DHT22;3276;48.490;9.222;2022-11-27T03:13:57;-0.30;43.00
6486;DHT22;3276;48.490;9.222;2022-11-27T03:16:34;-0.20;42.20
6486;DHT22;3276;48.490;9.222;2022-11-27T03:21:37;-0.20;40.10
6486;DHT22;3276;48.490;9.222;2022-11-27T03:24:04;-0.20;40.60
6486;DHT22;3276;48.490;9.222;2022-11-27T03:26:30;-0.10;42.40
6486;DHT22;3276;48.490;9.222;2022-11-27T03:28:58;-0.10;41.40
6486;DHT22;3276;48.490;9.222;2022-11-27T03:31:24;-0.10;41.80
6486;DHT22;3276;48.490;9.222;2022-11-27T03:33:51;-0.10;42.10
6486;DHT22;3276;48.490;9.222;2022-11-27T03:36:19;0.00;42.00
6486;DHT22;3276;48.490;9.222;2022-11-27T03:38:46;0.00;41.60
6486;DHT22;3276;48.490;9.222;2022-11-27T03:47:18;-0.10;41.60
6486;DHT22;3276;48.490;9.222;2022-11-27T03:52:33;0.00;41.50
6486;DHT22;3276;48.490;9.222;2022-11-27T03:55:11;-0.10;41.50
6486;DHT22;3276;48.490;9.222;2022-11-27T03:57:47;0.00;41.00
6486;DHT22;3276;48.490;9.222;2022-11-27T04:00:17;-0.10;39.80
6486;DHT22;3276;48.490;9.222;2022-11-27T04:02:49;-0.10;40.40
6486;DHT22;3276;48.490;9.222;2022-11-27T04:05:16;0.00;39.70
6486;DHT22;3276;48.490;9.222;2022-11-27T04:07:41;0.00;39.00
6486;DHT22;3276;48.490;9.222;2022-11-27T04:10:08;0.10;39.10
6486;DHT22;3276;48.490;9.222;2022-11-27T04:12:34;-0.10;38.00
6486;DHT22;3276;48.490;9.222;2022-11-27T04:15:00;-0.10;39.00
6486;DHT22;3276;48.490;9.222;2022-11-27T04:17:25;-0.10;39.70
6486;DHT22;3276;48.490;9.222;2022-11-27T04:19:51;-0.20;40.10
6486;DHT22;3276;48.490;9.222;2022-11-27T04:22:17;-0.30;39.80
6486;DHT22;3276;48.490;9.222;2022-11-27T04:24:42;-0.30;40.80
6486;DHT22;3276;48.490;9.222;2022-11-27T04:27:08;-0.30;40.80
6486;DHT22;3276;48.490;9.222;2022-11-27T04:29:34;-0.30;40.70
6486;DHT22;3276;48.490;9.222;2022-11-27T04:32:01;-0.30;40.60
6486;DHT22;3276;48.490;9.222;2022-11-27T04:34:26;-0.30;40.40
6486;DHT22;3276;48.490;9.222;2022-11-27T04:36:52;-0.30;40.10
6486;DHT22;3276;48.490;9.222;2022-11-27T04:39:18;-0.40;40.40
6486;DHT22;3276;48.490;9.222;2022-11-27T04:41:43;-0.40;39.90
6486;DHT22;3276;48.490;9.222;2022-11-27T04:44:10;-0.30;40.10
6486;DHT22;3276;48.490;9.222;2022-11-27T04:46:36;-0.30;39.50
6486;DHT22;3276;48.490;9.222;2022-11-27T04:49:02;-0.40;39.00
6486;DHT22;3276;48.490;9.222;2022-11-27T04:51:27;-0.30;39.10
6486;DHT22;3276;48.490;9.222;2022-11-27T04:53:53;-0.30;38.80
6486;DHT22;3276;48.490;9.222;2022-11-27T04:56:18;-0.30;49.10
6486;DHT22;3276;48.490;9.222;2022-11-27T04:58:44;-0.40;48.70
6486;DHT22;3276;48.490;9.222;2022-11-27T05:01:10;-0.60;49.70
6486;DHT22;3276;48.490;9.222;2022-11-27T05:08:29;-0.70;46.70
6486;DHT22;3276;48.490;9.222;2022-11-27T05:11:06;-0.70;47.90
6486;DHT22;3276;48.490;9.222;2022-11-27T05:13:32;-0.60;47.10
6486;DHT22;3276;48.490;9.222;2022-11-27T05:15:58;-0.70;46.00
6486;DHT22;3276;48.490;9.222;2022-11-27T05:18:24;-0.70;46.00
6486;DHT22;3276;48.490;9.222;2022-11-27T05:21:01;-0.70;45.50
6486;DHT22;3276;48.490;9.222;2022-11-27T05:23:27;-0.70;45.40
6486;DHT22;3276;48.490;9.222;2022-11-27T05:25:53;-0.70;45.20
6486;DHT22;3276;48.490;9.222;2022-11-27T05:28:20;-0.70;45.20
6486;DHT22;3276;48.490;9.222;2022-11-27T05:30:45;-0.80;44.70
6486;DHT22;3276;48.490;9.222;2022-11-27T05:33:11;-0.80;44.60
6486;DHT22;3276;48.490;9.222;2022-11-27T05:35:37;-0.90;45.40
6486;DHT22;3276;48.490;9.222;2022-11-27T05:38:02;-0.90;45.90
6486;DHT22;3276;48.490;9.222;2022-11-27T05:40:28;-0.90;40.40
6486;DHT22;3276;48.490;9.222;2022-11-27T05:42:53;-0.90;40.80
6486;DHT22;3276;48.490;9.222;2022-11-27T05:45:19;-1.00;40.40
6486;DHT22;3276;48.490;9.222;2022-11-27T05:47:45;-1.00;40.70
6486;DHT22;3276;48.490;9.222;2022-11-27T05:50:10;-1.10;41.50
6486;DHT22;3276;48.490;9.222;2022-11-27T05:52:36;-1.10;41.60
6486;DHT22;3276;48.490;9.222;2022-11-27T05:55:02;-1.00;41.70
6486;DHT22;3276;48.490;9.222;2022-11-27T05:57:28;-1.00;42.00
6486;DHT22;3276;48.490;9.222;2022-11-27T05:59:55;-1.00;41.40
6486;DHT22;3276;48.490;9.222;2022-11-27T06:02:21;-1.00;40.50
6486;DHT22;3276;48.490;9.222;2022-11-27T06:04:46;-1.00;41.10
6486;DHT22;3276;48.490;9.222;2022-11-27T06:07:12;-0.90;41.00
6486;DHT22;3276;48.490;9.222;2022-11-27T06:09:37;-0.90;40.50
6486;DHT22;3276;48.490;9.222;2022-11-27T06:12:03;-0.80;40.00
6486;DHT22;3276;48.490;9.222;2022-11-27T06:14:29;-0.80;39.30
6486;DHT22;3276;48.490;9.222;2022-11-27T06:16:56;-0.80;38.40
6486;DHT22;3276;48.490;9.222;2022-11-27T06:19:22;-1.00;37.70
6486;DHT22;3276;48.490;9.222;2022-11-27T06:21:47;-0.90;38.30
6486;DHT22;3276;48.490;9.222;2022-11-27T06:24:13;-0.90;37.50
6486;DHT22;3276;48.490;9.222;2022-11-27T06:26:38;-0.90;37.60
6486;DHT22;3276;48.490;9.222;2022-11-27T06:29:04;-0.90;37.70
6486;DHT22;3276;48.490;9.222;2022-11-27T06:31:31;-0.80;36.50
6486;DHT22;3276;48.490;9.222;2022-11-27T06:33:58;-0.90;36.30
6486;DHT22;3276;48.490;9.222;2022-11-27T06:36:27;-0.90;36.30
6486;DHT22;3276;48.490;9.222;2022-11-27T06:38:52;-0.90;36.60
6486;DHT22;3276;48.490;9.222;2022-11-27T06:41:20;-0.90;36.60
6486;DHT22;3276;48.490;9.222;2022-11-27T06:43:46;-1.00;35.80
6486;DHT22;3276;48.490;9.222;2022-11-27T06:46:14;-1.00;36.10
6486;DHT22;3276;48.490;9.222;2022-11-27T06:48:41;-1.00;36.50
6486;DHT22;3276;48.490;9.222;2022-11-27T06:51:07;-1.10;36.20
6486;DHT22;3276;48.490;9.222;2022-11-27T06:53:36;-1.10;37.90
6486;DHT22;3276;48.490;9.222;2022-11-27T06:56:06;-1.10;37.40
6486;DHT22;3276;48.490;9.222;2022-11-27T06:58:33;-1.10;37.70
6486;DHT22;3276;48.490;9.222;2022-11-27T07:01:00;-1.10;37.00
6486;DHT22;3276;48.490;9.222;2022-11-27T07:03:26;-1.30;36.50
6486;DHT22;3276;48.490;9.222;2022-11-27T07:05:51;-1.40;38.00
6486;DHT22;3276;48.490;9.222;2022-11-27T07:08:17;-1.40;38.50
6486;DHT22;3276;48.490;9.222;2022-11-27T07:10:43;-1.40;37.90
6486;DHT22;3276;48.490;9.222;2022-11-27T07:13:08;-1.30;38.40
6486;DHT22;3276;48.490;9.222;2022-11-27T07:15:34;-1.30;38.60
6486;DHT22;3276;48.490;9.222;2022-11-27T07:18:00;-1.40;37.90
6486;DHT22;3276;48.490;9.222;2022-11-27T07:20:26;-1.40;38.60
6486;DHT22;3276;48.490;9.222;2022-11-27T07:22:51;-1.30;38.90
6486;DHT22;3276;48.490;9.222;2022-11-27T07:25:17;-1.30;39.20
6486;DHT22;3276;48.490;9.222;2022-11-27T07:27:42;-1.20;39.10
6486;DHT22;3276;48.490;9.222;2022-11-27T07:30:08;-1.10;39.30
6486;DHT22;3276;48.490;9.222;2022-11-27T07:32:34;-1.10;40.00
6486;DHT22;3276;48.490;9.222;2022-11-27T07:35:00;-0.90;40.80
6486;DHT22;3276;48.490;9.222;2022-11-27T07:37:29;-0.80;39.80
6486;DHT22;3276;48.490;9.222;2022-11-27T07:39:55;-0.70;40.60
6486;DHT22;3276;48.490;9.222;2022-11-27T07:42:21;-0.70;41.70
6486;DHT22;3276;48.490;9.222;2022-11-27T07:44:46;-0.40;41.20
6486;DHT22;3276;48.490;9.222;2022-11-27T07:47:12;-0.30;40.20
6486;DHT22;3276;48.490;9.222;2022-11-27T07:49:38;-0.20;39.80
6486;DHT22;3276;48.490;9.222;2022-11-27T07:52:04;-0.20;38.90
6486;DHT22;3276;48.490;9.222;2022-11-27T07:54:29;-0.10;37.70
6486;DHT22;3276;48.490;9.222;2022-11-27T07:56:55;-0.10;37.90
6486;DHT22;3276;48.490;9.222;2022-11-27T07:59:21;0.00;37.80
6486;DHT22;3276;48.490;9.222;2022-11-27T08:01:46;0.00;38.30
6486;DHT22;3276;48.490;9.222;2022-11-27T08:04:12;0.10;36.70
6486;DHT22;3276;48.490;9.222;2022-11-27T08:06:37;0.10;36.60
6486;DHT22;3276;48.490;9.222;2022-11-27T08:09:03;0.10;37.20
6486;DHT22;3276;48.490;9.222;2022-11-27T08:11:30;0.10;36.40
6486;DHT22;3276;48.490;9.222;2022-11-27T08:14:02;0.20;35.40
6486;DHT22;3276;48.490;9.222;2022-11-27T08:16:29;0.30;35.70
6486;DHT22;3276;48.490;9.222;2022-11-27T08:18:55;0.20;36.70
6486;DHT22;3276;48.490;9.222;2022-11-27T08:21:22;0.30;35.90
6486;DHT22;3276;48.490;9.222;2022-11-27T08:23:48;0.30;35.40
6486;DHT22;3276;48.490;9.222;2022-11-27T08:26:14;0.30;35.10
6486;DHT22;3276;48.490;9.222;2022-11-27T08:28:40;0.40;35.70
6486;DHT22;3276;48.490;9.222;2022-11-27T08:31:07;0.40;35.00
6486;DHT22;3276;48.490;9.222;2022-11-27T08:33:34;0.40;35.60
6486;DHT22;3276;48.490;9.222;2022-11-27T08:36:00;0.30;35.90
6486;DHT22;3276;48.490;9.222;2022-11-27T08:38:26;0.40;36.60
6486;DHT22;3276;48.490;9.222;2022-11-27T08:40:57;0.40;36.60
6486;DHT22;3276;48.490;9.222;2022-11-27T08:43:23;0.60;37.10
6486;DHT22;3276;48.490;9.222;2022-11-27T08:45:49;0.70;36.30
6486;DHT22;3276;48.490;9.222;2022-11-27T08:48:15;0.80;36.40
6486;DHT22;3276;48.490;9.222;2022-11-27T08:50:41;0.80;36.20
6486;DHT22;3276;48.490;9.222;2022-11-27T08:53:07;0.80;35.40
6486;DHT22;3276;48.490;9.222;2022-11-27T08:55:32;0.80;34.70
6486;DHT22;3276;48.490;9.222;2022-11-27T08:57:58;0.80;34.60
6486;DHT22;3276;48.490;9.222;2022-11-27T09:00:23;0.80;34.70
6486;DHT22;3276;48.490;9.222;2022-11-27T09:02:49;1.10;33.70
6486;DHT22;3276;48.490;9.222;2022-11-27T09:05:14;1.00;32.90
6486;DHT22;3276;48.490;9.222;2022-11-27T09:07:40;1.10;33.40
6486;DHT22;3276;48.490;9.222;2022-11-27T09:10:07;1.20;33.10
6486;DHT22;3276;48.490;9.222;2022-11-27T09:12:32;1.40;32.80
6486;DHT22;3276;48.490;9.222;2022-11-27T09:14:58;1.60;30.70
6486;DHT22;3276;48.490;9.222;2022-11-27T09:17:24;1.70;29.40
6486;DHT22;3276;48.490;9.222;2022-11-27T09:19:49;1.70;29.00
6486;DHT22;3276;48.490;9.222;2022-11-27T09:22:15;1.70;29.30
6486;DHT22;3276;48.490;9.222;2022-11-27T09:24:40;1.80;29.30
6486;DHT22;3276;48.490;9.222;2022-11-27T09:27:06;1.90;29.20
6486;DHT22;3276;48.490;9.222;2022-11-27T09:29:33;2.00;28.90
6486;DHT22;3276;48.490;9.222;2022-11-27T09:31:59;2.10;27.70
6486;DHT22;3276;48.490;9.222;2022-11-27T09:34:25;2.30;28.90
6486;DHT22;3276;48.490;9.222;2022-11-27T09:36:50;2.50;27.30
6486;DHT22;3276;48.490;9.222;2022-11-27T09:39:16;2.90;27.00
6486;DHT22;3276;48.490;9.222;2022-11-27T09:41:58;3.30;26.20
6486;DHT22;3276;48.490;9.222;2022-11-27T09:44:41;3.40;25.40
6486;DHT22;3276;48.490;9.222;2022-11-27T09:47:37;3.70;24.20
6486;DHT22;3276;48.490;9.222;2022-11-27T09:55:25;3.80;23.00
6486;DHT22;3276;48.490;9.222;2022-11-27T09:58:01;3.70;23.50
6486;DHT22;3276;48.490;9.222;2022-11-27T10:00:29;3.70;23.50
6486;DHT22;3276;48.490;9.222;2022-11-27T10:02:55;3.70;24.20
6486;DHT22;3276;48.490;9.222;2022-11-27T10:05:47;3.80;24.40
6486;DHT22;3276;48.490;9.222;2022-11-27T10:13:35;4.20;22.90
6486;DHT22;3276;48.490;9.222;2022-11-27T10:16:23;4.40;22.40
6486;DHT22;3276;48.490;9.222;2022-11-27T10:21:55;4.50;22.70
6486;DHT22;3276;48.490;9.222;2022-11-27T10:24:40;4.40;22.00
6486;DHT22;3276;48.490;9.222;2022-11-27T10:27:19;4.50;22.80
6486;DHT22;3276;48.490;9.222;2022-11-27T10:29:50;4.60;22.60
6486;DHT22;3276;48.490;9.222;2022-11-27T10:32:26;4.70;22.50
6486;DHT22;3276;48.490;9.222;2022-11-27T10:35:00;4.80;22.30
6486;DHT22;3276;48.490;9.222;2022-11-27T10:47:45;4.80;22.80
6486;DHT22;3276;48.490;9.222;2022-11-27T10:50:17;4.80;23.80
6486;DHT22;3276;48.490;9.222;2022-11-27T10:52:50;4.70;24.10
6486;DHT22;3276;48.490;9.222;2022-11-27T10:55:27;4.70;24.10
6486;DHT22;3276;48.490;9.222;2022-11-27T11:00:31;4.70;24.10
6486;DHT22;3276;48.490;9.222;2022-11-27T11:03:05;4.50;23.60
6486;DHT22;3276;48.490;9.222;2022-11-27T11:05:32;4.50;24.00
6486;DHT22;3276;48.490;9.222;2022-11-27T11:08:18;4.50;24.00
6486;DHT22;3276;48.490;9.222;2022-11-27T11:11:05;4.40;23.90
6486;DHT22;3276;48.490;9.222;2022-11-27T11:13:51;4.40;23.90
6486;DHT22;3276;48.490;9.222;2022-11-27T11:16:23;4.30;23.80
6486;DHT22;3276;48.490;9.222;2022-11-27T11:18:51;4.20;24.50
6486;DHT22;3276;48.490;9.222;2022-11-27T11:24:43;4.20;25.20
6486;DHT22;3276;48.490;9.222;2022-11-27T11:26:49;4.20;25.70
6486;DHT22;3276;48.490;9.222;2022-11-27T11:29:36;4.30;25.40
6486;DHT22;3276;48.490;9.222;2022-11-27T11:32:10;4.40;25.60
6486;DHT22;3276;48.490;9.222;2022-11-27T11:34:42;4.50;26.00
6486;DHT22;3276;48.490;9.222;2022-11-27T11:37:29;4.60;25.20
6486;DHT22;3276;48.490;9.222;2022-11-27T11:43:02;5.00;24.20
6486;DHT22;3276;48.490;9.222;2022-11-27T11:45:32;5.20;24.30
6486;DHT22;3276;48.490;9.222;2022-11-27T11:48:00;5.30;22.40
6486;DHT22;3276;48.490;9.222;2022-11-27T11:50:42;5.40;22.80
6486;DHT22;3276;48.490;9.222;2022-11-27T11:53:33;5.60;23.10
6486;DHT22;3276;48.490;9.222;2022-11-27T11:58:59;6.20;20.90
6486;DHT22;3276;48.490;9.222;2022-11-27T12:02:16;6.40;20.70
6486;DHT22;3276;48.490;9.222;2022-11-27T12:15:41;6.50;19.00
6486;DHT22;3276;48.490;9.222;2022-11-27T12:24:00;6.70;18.70
6486;DHT22;3276;48.490;9.222;2022-11-27T12:29:26;7.00;18.40
6486;DHT22;3276;48.490;9.222;2022-11-27T12:32:26;7.20;17.70
6486;DHT22;3276;48.490;9.222;2022-11-27T12:37:50;7.20;16.80
6486;DHT22;3276;48.490;9.222;2022-11-27T12:45:44;7.20;17.30
6486;DHT22;3276;48.490;9.222;2022-11-27T12:48:23;7.20;17.30
6486;DHT22;3276;48.490;9.222;2022-11-27T12:50:55;7.30;17.40
6486;DHT22;3276;48.490;9.222;2022-11-27T12:56:08;7.50;16.80
6486;DHT22;3276;48.490;9.222;2022-11-27T12:58:38;7.50;15.90
6486;DHT22;3276;48.490;9.222;2022-11-27T13:01:20;7.70;15.80
6486;DHT22;3276;48.490;9.222;2022-11-27T13:04:16;7.80;15.60
6486;DHT22;3276;48.490;9.222;2022-11-27T13:06:53;7.90;15.50
6486;DHT22;3276;48.490;9.222;2022-11-27T13:09:46;7.90;15.50
6486;DHT22;3276;48.490;9.222;2022-11-27T13:12:22;7.90;15.80
6486;DHT22;3276;48.490;9.222;2022-11-27T13:15:17;7.90;15.50
6486;DHT22;3276;48.490;9.222;2022-11-27T13:17:44;8.00;15.00
6486;DHT22;3276;48.490;9.222;2022-11-27T13:20:17;8.10;14.60
6486;DHT22;3276;48.490;9.222;2022-11-27T13:22:44;8.30;13.70
6486;DHT22;3276;48.490;9.222;2022-11-27T13:25:13;8.40;13.80
6486;DHT22;3276;48.490;9.222;2022-11-27T13:27:43;8.40;13.00
6486;DHT22;3276;48.490;9.222;2022-11-27T13:32:57;8.50;12.70
6486;DHT22;3276;48.490;9.222;2022-11-27T13:35:36;8.50;13.00
6486;DHT22;3276;48.490;9.222;2022-11-27T13:38:23;8.60;13.20
6486;DHT22;3276;48.490;9.222;2022-11-27T13:40:52;8.60;13.00
6486;DHT22;3276;48.490;9.222;2022-11-27T13:43:33;8.60;13.10
6486;DHT22;3276;48.490;9.222;2022-11-27T13:46:06;8.70;13.30
6486;DHT22;3276;48.490;9.222;2022-11-27T13:48:39;8.60;13.40
6486;DHT22;3276;48.490;9.222;2022-11-27T13:51:08;8.30;13.70
6486;DHT22;3276;48.490;9.222;2022-11-27T13:53:40;8.20;13.90
6486;DHT22;3276;48.490;9.222;2022-11-27T13:56:07;8.30;13.70
6486;DHT22;3276;48.490;9.222;2022-11-27T13:58:34;8.30;13.90
6486;DHT22;3276;48.490;9.222;2022-11-27T14:01:21;8.20;13.60
6486;DHT22;3276;48.490;9.222;2022-11-27T14:03:48;8.00;13.50
6486;DHT22;3276;48.490;9.222;2022-11-27T14:06:27;7.90;13.50
6486;DHT22;3276;48.490;9.222;2022-11-27T14:08:56;7.80;14.50
6486;DHT22;3276;48.490;9.222;2022-11-27T14:11:36;7.90;13.50
6486;DHT22;3276;48.490;9.222;2022-11-27T14:16:37;8.10;12.90
6486;DHT22;3276;48.490;9.222;2022-11-27T14:19:21;8.10;12.70
6486;DHT22;3276;48.490;9.222;2022-11-27T14:21:47;8.00;12.80
6486;DHT22;3276;48.490;9.222;2022-11-27T14:26:57;7.90;13.50
6486;DHT22;3276;48.490;9.222;2022-11-27T14:29:24;7.90;13.50
6486;DHT22;3276;48.490;9.222;2022-11-27T14:31:57;8.00;13.60
6486;DHT22;3276;48.490;9.222;2022-11-27T14:34:30;8.10;13.60
6486;DHT22;3276;48.490;9.222;2022-11-27T14:36:56;8.10;13.60
6486;DHT22;3276;48.490;9.222;2022-11-27T14:39:31;8.10;13.40
6486;DHT22;3276;48.490;9.222;2022-11-27T14:41:59;8.10;12.90
6486;DHT22;3276;48.490;9.222;2022-11-27T14:44:25;8.10;13.10
6486;DHT22;3276;48.490;9.222;2022-11-27T14:46:51;8.10;13.10
6486;DHT22;3276;48.490;9.222;2022-11-27T14:49:22;8.10;13.10
6486;DHT22;3276;48.490;9.222;2022-11-27T14:51:49;8.00;13.10
6486;DHT22;3276;48.490;9.222;2022-11-27T14:54:30;7.90;12.80
6486;DHT22;3276;48.490;9.222;2022-11-27T14:56:57;7.80;13.40
6486;DHT22;3276;48.490;9.222;2022-11-27T14:59:23;7.70;13.30
6486;DHT22;3276;48.490;9.222;2022-11-27T15:04:35;7.70;13.30
6486;DHT22;3276;48.490;9.222;2022-11-27T15:07:05;7.60;13.30
6486;DHT22;3276;48.490;9.222;2022-11-27T15:09:33;7.50;12.00
6486;DHT22;3276;48.490;9.222;2022-11-27T15:12:13;7.30;10.80
6486;DHT22;3276;48.490;9.222;2022-11-27T15:15:04;7.20;11.40
6486;DHT22;3276;48.490;9.222;2022-11-27T15:17:33;7.10;10.90
6486;DHT22;3276;48.490;9.222;2022-11-27T15:20:00;7.00;10.70
6486;DHT22;3276;48.490;9.222;2022-11-27T15:22:26;6.90;10.90
6486;DHT22;3276;48.490;9.222;2022-11-27T15:25:03;6.80;11.10
6486;DHT22;3276;48.490;9.222;2022-11-27T15:27:31;6.70;11.20
6486;DHT22;3276;48.490;9.222;2022-11-27T15:30:11;6.60;12.00
6486;DHT22;3276;48.490;9.222;2022-11-27T15:32:45;6.60;12.00
6486;DHT22;3276;48.490;9.222;2022-11-27T15:35:28;6.50;11.50
6486;DHT22;3276;48.490;9.222;2022-11-27T15:37:56;6.40;12.40
6486;DHT22;3276;48.490;9.222;2022-11-27T15:40:30;6.30;12.40
6486;DHT22;3276;48.490;9.222;2022-11-27T15:42:56;6.20;12.40
6486;DHT22;3276;48.490;9.222;2022-11-27T15:45:22;6.20;12.80
6486;DHT22;3276;48.490;9.222;2022-11-27T15:47:48;6.10;12.30
6486;DHT22;3276;48.490;9.222;2022-11-27T15:50:20;6.10;12.50
6486;DHT22;3276;48.490;9.222;2022-11-27T15:52:46;6.00;12.70
6486;DHT22;3276;48.490;9.222;2022-11-27T15:55:13;6.00;12.50
6486;DHT22;3276;48.490;9.222;2022-11-27T15:57:42;5.90;13.10
6486;DHT22;3276;48.490;9.222;2022-11-27T16:00:09;5.80;13.50
6486;DHT22;3276;48.490;9.222;2022-11-27T16:02:36;5.80;13.60
6486;DHT22;3276;48.490;9.222;2022-11-27T16:05:03;5.80;13.80
6486;DHT22;3276;48.490;9.222;2022-11-27T16:07:29;5.70;13.90
6486;DHT22;3276;48.490;9.222;2022-11-27T16:09:54;5.70;14.20
6486;DHT22;3276;48.490;9.222;2022-11-27T16:12:20;5.60;14.30
6486;DHT22;3276;48.490;9.222;2022-11-27T16:14:46;5.60;14.50
6486;DHT22;3276;48.490;9.222;2022-11-27T16:17:11;5.50;14.30
6486;DHT22;3276;48.490;9.222;2022-11-27T16:19:37;5.50;14.80
6486;DHT22;3276;48.490;9.222;2022-11-27T16:22:02;5.40;15.10
6486;DHT22;3276;48.490;9.222;2022-11-27T16:24:28;5.40;14.40
6486;DHT22;3276;48.490;9.222;2022-11-27T16:26:54;5.30;14.80
6486;DHT22;3276;48.490;9.222;2022-11-27T16:29:19;5.30;15.00
6486;DHT22;3276;48.490;9.222;2022-11-27T16:31:45;5.30;14.80
6486;DHT22;3276;48.490;9.222;2022-11-27T16:34:11;5.30;15.10
6486;DHT22;3276;48.490;9.222;2022-11-27T16:36:40;5.20;15.20
6486;DHT22;3276;48.490;9.222;2022-11-27T16:39:07;5.20;15.40
6486;DHT22;3276;48.490;9.222;2022-11-27T16:41:33;5.20;15.40
6486;DHT22;3276;48.490;9.222;2022-11-27T16:43:58;5.20;15.40
6486;DHT22;3276;48.490;9.222;2022-11-27T16:46:26;5.10;15.30
6486;DHT22;3276;48.490;9.222;2022-11-27T16:48:53;5.10;16.00
6486;DHT22;3276;48.490;9.222;2022-11-27T16:51:24;5.00;15.90
6486;DHT22;3276;48.490;9.222;2022-11-27T16:53:52;5.00;15.90
6486;DHT22;3276;48.490;9.222;2022-11-27T16:56:23;4.90;15.90
6486;DHT22;3276;48.490;9.222;2022-11-27T16:58:49;4.90;15.80
6486;DHT22;3276;48.490;9.222;2022-11-27T17:01:18;4.90;16.40
6486;DHT22;3276;48.490;9.222;2022-11-27T17:03:44;4.90;16.60
6486;DHT22;3276;48.490;9.222;2022-11-27T17:06:15;4.90;15.80
6486;DHT22;3276;48.490;9.222;2022-11-27T17:08:41;4.90;15.80
6486;DHT22;3276;48.490;9.222;2022-11-27T17:11:18;4.90;15.80
6486;DHT22;3276;48.490;9.222;2022-11-27T17:13:45;4.90;15.80
6486;DHT22;3276;48.490;9.222;2022-11-27T17:16:11;5.00;15.90
6486;DHT22;3276;48.490;9.222;2022-11-27T17:18:38;5.00;15.90
6486;DHT22;3276;48.490;9.222;2022-11-27T17:21:15;5.00;15.90
6486;DHT22;3276;48.490;9.222;2022-11-27T17:23:43;5.10;16.00
6486;DHT22;3276;48.490;9.222;2022-11-27T17:26:13;5.10;15.90
6486;DHT22;3276;48.490;9.222;2022-11-27T17:28:39;5.10;15.60
6486;DHT22;3276;48.490;9.222;2022-11-27T17:31:09;5.10;16.00
6486;DHT22;3276;48.490;9.222;2022-11-27T17:33:35;5.10;15.60
6486;DHT22;3276;48.490;9.222;2022-11-27T17:36:01;5.10;16.00
6486;DHT22;3276;48.490;9.222;2022-11-27T17:38:27;5.10;16.00
6486;DHT22;3276;48.490;9.222;2022-11-27T17:40:57;5.20;16.00
6486;DHT22;3276;48.490;9.222;2022-11-27T17:43:23;5.20;16.00
6486;DHT22;3276;48.490;9.222;2022-11-27T17:45:49;5.20;15.40
6486;DHT22;3276;48.490;9.222;2022-11-27T17:48:15;5.20;15.00
6486;DHT22;3276;48.490;9.222;2022-11-27T17:50:41;5.20;14.70
6486;DHT22;3276;48.490;9.222;2022-11-27T17:53:06;5.30;15.10
6486;DHT22;3276;48.490;9.222;2022-11-27T17:55:32;5.20;15.10
6486;DHT22;3276;48.490;9.222;2022-11-27T17:57:57;5.30;15.00
6486;DHT22;3276;48.490;9.222;2022-11-27T18:00:23;5.30;14.90
6486;DHT22;3276;48.490;9.222;2022-11-27T18:02:48;5.30;14.90
6486;DHT22;3276;48.490;9.222;2022-11-27T18:05:14;5.30;14.90
6486;DHT22;3276;48.490;9.222;2022-11-27T18:07:43;5.30;15.60
6486;DHT22;3276;48.490;9.222;2022-11-27T18:10:09;5.20;16.10
6486;DHT22;3276;48.490;9.222;2022-11-27T18:12:34;5.20;15.70